createdAt,value
2022-10-01T00:00:01.977Z,3.35
2022-10-01T00:02:30.239Z,4.07
2022-10-01T00:04:58.632Z,3.13
2022-10-01T00:07:27.450Z,6.45
2022-10-01T00:09:55.717Z,3.20
2022-10-01T00:12:25.207Z,3.28
2022-10-01T00:14:53.360Z,3.63
2022-10-01T00:17:21.744Z,4.15
2022-10-01T00:19:50.098Z,3.53
2022-10-01T00:22:19.015Z,4.80
2022-10-01T00:24:47.950Z,2.65
2022-10-01T00:27:16.678Z,3.80
2022-10-01T00:29:46.204Z,3.67
2022-10-01T00:32:14.444Z,2.63
2022-10-01T00:34:42.654Z,3.28
2022-10-01T00:37:11.414Z,2.70
2022-10-01T00:39:39.719Z,3.00
2022-10-01T00:42:18.497Z,4.47
2022-10-01T00:44:49.197Z,2.90
2022-10-01T00:47:30.277Z,2.40
2022-10-01T00:50:05.842Z,5.40
2022-10-01T00:52:36.205Z,5.53
2022-10-01T00:55:08.764Z,2.40
2022-10-01T00:57:37.285Z,2.10
2022-10-01T01:00:12.206Z,2.08
2022-10-01T01:02:40.805Z,2.72
2022-10-01T01:05:13.661Z,2.35
2022-10-01T01:07:45.421Z,1.85
2022-10-01T01:10:16.222Z,2.22
2022-10-01T01:13:01.763Z,3.10
2022-10-01T01:15:36.921Z,2.70
2022-10-01T01:18:10.969Z,1.77
2022-10-01T01:20:54.484Z,1.40
2022-10-01T01:23:56.190Z,1.67
2022-10-01T01:26:32.419Z,2.65
2022-10-01T01:29:07.787Z,3.22
2022-10-01T01:31:40.543Z,1.70
2022-10-01T01:34:13.025Z,2.28
2022-10-01T01:36:46.339Z,1.92
2022-10-01T01:39:18.568Z,1.70
2022-10-01T01:41:50.469Z,2.38
2022-10-01T01:44:25.025Z,3.25
2022-10-01T01:46:56.463Z,3.55
2022-10-01T01:49:25.864Z,2.60
2022-10-01T01:51:59.545Z,1.85
2022-10-01T01:54:29.589Z,2.70
2022-10-01T01:56:59.322Z,2.47
2022-10-01T01:59:29.498Z,2.00
2022-10-01T02:01:58.956Z,3.35
2022-10-01T02:04:30.743Z,1.55
2022-10-01T02:07:23.893Z,3.25
2022-10-01T02:10:02.099Z,2.50
2022-10-01T02:12:42.290Z,2.80
2022-10-01T02:15:22.264Z,4.30
2022-10-01T02:17:56.192Z,3.58
2022-10-01T02:20:30.644Z,4.57
2022-10-01T02:23:03.681Z,2.38
2022-10-01T02:25:38.787Z,4.82
2022-10-01T02:28:10.800Z,2.15
2022-10-01T02:30:41.876Z,2.88
2022-10-01T02:33:12.510Z,4.45
2022-10-01T02:35:42.719Z,3.50
2022-10-01T02:38:12.906Z,7.00
2022-10-01T02:40:44.381Z,3.50
2022-10-01T02:43:18.321Z,4.53
2022-10-01T02:45:53.500Z,7.88
2022-10-01T02:48:21.982Z,1.92
2022-10-01T02:50:53.384Z,3.20
2022-10-01T02:53:24.432Z,3.85
2022-10-01T02:55:53.825Z,4.20
2022-10-01T02:58:21.266Z,6.18
2022-10-01T03:00:50.732Z,6.95
2022-10-01T03:03:19.082Z,7.03
2022-10-01T03:05:47.818Z,9.85
2022-10-01T03:08:16.143Z,7.93
2022-10-01T03:10:46.745Z,8.13
2022-10-01T03:13:15.606Z,8.48
2022-10-01T03:15:46.969Z,7.15
2022-10-01T03:18:16.404Z,11.70
2022-10-01T03:20:44.605Z,11.98
2022-10-01T03:23:13.045Z,17.65
2022-10-01T03:25:41.604Z,16.50
2022-10-01T03:28:09.878Z,20.63
2022-10-01T03:30:38.108Z,15.53
2022-10-01T03:33:06.250Z,18.63
2022-10-01T03:35:35.713Z,19.85
2022-10-01T03:38:04.047Z,20.10
2022-10-01T03:40:34.302Z,17.60
2022-10-01T03:43:02.644Z,17.83
2022-10-01T03:45:31.238Z,19.63
2022-10-01T03:47:59.805Z,10.02
2022-10-01T03:50:28.084Z,10.55
2022-10-01T03:52:57.735Z,8.65
2022-10-01T03:55:26.474Z,14.20
2022-10-01T03:57:54.842Z,16.67
2022-10-01T04:00:23.246Z,18.33
2022-10-01T04:02:51.535Z,13.73
2022-10-01T04:05:19.946Z,10.52
2022-10-01T04:07:50.748Z,14.00
2022-10-01T04:10:20.348Z,18.80
2022-10-01T04:12:48.642Z,16.27
2022-10-01T04:15:17.523Z,14.52
2022-10-01T04:17:46.187Z,16.40
2022-10-01T04:20:14.645Z,14.20
2022-10-01T04:22:43.314Z,14.45
2022-10-01T04:25:12.488Z,11.10
2022-10-01T04:27:44.754Z,11.30
2022-10-01T04:30:13.052Z,17.17
2022-10-01T04:32:41.271Z,17.38
2022-10-01T04:35:11.599Z,15.68
2022-10-01T04:37:39.989Z,20.30
2022-10-01T04:40:09.677Z,17.33
2022-10-01T04:42:41.765Z,21.55
2022-10-01T04:45:11.653Z,17.80
2022-10-01T04:47:47.615Z,20.50
2022-10-01T04:50:16.735Z,20.35
2022-10-01T04:52:45.186Z,22.42
2022-10-01T04:55:13.501Z,18.02
2022-10-01T04:57:43.932Z,18.92
2022-10-01T05:00:14.771Z,21.27
2022-10-01T05:02:46.429Z,22.55
2022-10-01T05:05:15.225Z,20.10
2022-10-01T05:07:43.748Z,23.55
2022-10-01T05:10:14.476Z,18.17
2022-10-01T05:12:44.569Z,19.88
2022-10-01T05:15:13.465Z,20.48
2022-10-01T05:17:41.805Z,14.15
2022-10-01T05:20:15.935Z,19.65
2022-10-01T05:22:44.758Z,12.80
2022-10-01T05:25:13.634Z,14.55
2022-10-01T05:27:44.018Z,18.20
2022-10-01T05:30:14.612Z,20.77
2022-10-01T05:32:42.958Z,15.25
2022-10-01T05:35:11.280Z,13.60
2022-10-01T05:37:39.469Z,19.73
2022-10-01T05:40:08.676Z,11.38
2022-10-01T05:42:36.996Z,13.55
2022-10-01T05:45:07.314Z,15.30
2022-10-01T05:47:35.846Z,12.90
2022-10-01T05:50:04.552Z,17.15
2022-10-01T05:52:33.023Z,14.23
2022-10-01T05:55:01.391Z,16.58
2022-10-01T05:57:30.418Z,15.88
2022-10-01T05:59:58.687Z,12.30
2022-10-01T06:02:28.240Z,20.77
2022-10-01T06:04:56.463Z,19.80
2022-10-01T06:07:24.959Z,14.73
2022-10-01T06:09:53.123Z,16.77
2022-10-01T06:12:21.364Z,18.25
2022-10-01T06:14:49.689Z,13.45
2022-10-01T06:17:18.088Z,13.70
2022-10-01T06:19:47.746Z,13.10
2022-10-01T06:22:16.275Z,15.80
2022-10-01T06:24:44.752Z,15.95
2022-10-01T06:27:13.554Z,18.60
2022-10-01T06:29:41.805Z,17.05
2022-10-01T06:32:13.494Z,21.35
2022-10-01T06:34:41.880Z,17.55
2022-10-01T06:37:11.645Z,15.60
2022-10-01T06:39:39.783Z,24.88
2022-10-01T06:42:08.093Z,18.60
2022-10-01T06:44:36.269Z,19.90
2022-10-01T06:47:04.907Z,21.70
2022-10-01T06:49:33.110Z,20.45
2022-10-01T06:52:18.741Z,23.80
2022-10-01T06:54:48.380Z,21.17
2022-10-01T06:57:16.612Z,19.80
2022-10-01T06:59:44.926Z,17.33
2022-10-01T07:02:23.447Z,21.08
2022-10-01T07:04:51.732Z,20.73
2022-10-01T07:07:20.179Z,21.05
2022-10-01T07:09:49.640Z,14.07
2022-10-01T07:12:17.940Z,20.75
2022-10-01T07:14:46.638Z,15.13
2022-10-01T07:17:14.905Z,21.00
2022-10-01T07:19:43.299Z,21.23
2022-10-01T07:22:11.612Z,16.73
2022-10-01T07:24:39.956Z,18.77
2022-10-01T07:27:09.526Z,17.80
2022-10-01T07:29:38.070Z,19.70
2022-10-01T07:32:08.879Z,23.77
2022-10-01T07:34:40.175Z,18.80
2022-10-01T07:37:09.027Z,19.75
2022-10-01T07:39:39.763Z,19.88
2022-10-01T07:42:12.106Z,18.17
2022-10-01T07:44:40.289Z,23.40
2022-10-01T07:47:08.882Z,17.00
2022-10-01T07:49:37.092Z,30.45
2022-10-01T07:52:10.893Z,22.70
2022-10-01T07:54:41.579Z,21.45
2022-10-01T07:57:11.103Z,24.52
2022-10-01T07:59:40.404Z,22.92
2022-10-01T08:02:14.915Z,19.35
2022-10-01T08:05:00.819Z,16.98
2022-10-01T08:07:31.078Z,19.63
2022-10-01T08:09:59.251Z,20.20
2022-10-01T08:12:30.410Z,19.45
2022-10-01T08:14:58.794Z,18.58
2022-10-01T08:17:29.511Z,18.55
2022-10-01T08:19:58.013Z,16.70
2022-10-01T08:22:26.364Z,20.83
2022-10-01T08:24:54.659Z,18.92
2022-10-01T08:27:25.679Z,19.52
2022-10-01T08:29:55.489Z,19.48
2022-10-01T08:32:24.959Z,18.35
2022-10-01T08:34:56.762Z,13.32
2022-10-01T08:37:28.822Z,18.25
2022-10-01T08:39:57.540Z,19.98
2022-10-01T08:42:45.870Z,16.85
2022-10-01T08:45:21.066Z,17.63
2022-10-01T08:47:54.551Z,14.18
2022-10-01T08:50:36.314Z,17.90
2022-10-01T08:53:08.472Z,15.70
2022-10-01T08:55:37.981Z,23.10
2022-10-01T08:58:08.019Z,16.63
2022-10-01T09:00:42.500Z,19.40
2022-10-01T09:03:15.899Z,19.88
2022-10-01T09:05:56.329Z,13.95
2022-10-01T09:08:43.793Z,13.85
2022-10-01T09:11:25.579Z,17.45
2022-10-01T09:14:12.612Z,13.32
2022-10-01T09:16:50.793Z,17.92
2022-10-01T09:19:32.700Z,26.80
2022-10-01T09:22:03.511Z,18.60
2022-10-01T09:24:41.171Z,21.27
2022-10-01T09:27:16.497Z,22.55
2022-10-01T09:29:50.436Z,21.60
2022-10-01T09:32:25.704Z,20.10
2022-10-01T09:34:54.666Z,13.50
2022-10-01T09:37:32.418Z,17.88
2022-10-01T09:40:15.705Z,14.48
2022-10-01T09:42:44.588Z,22.35
2022-10-01T09:45:14.740Z,22.55
2022-10-01T09:47:47.402Z,24.45
2022-10-01T09:50:19.262Z,18.83
2022-10-01T09:52:51.233Z,14.38
2022-10-01T09:55:29.926Z,22.85
2022-10-01T09:58:04.839Z,27.05
2022-10-01T10:00:34.040Z,18.30
2022-10-01T10:03:03.688Z,19.48
2022-10-01T10:05:41.746Z,15.32
2022-10-01T10:08:15.271Z,22.88
2022-10-01T10:10:51.831Z,19.48
2022-10-01T10:13:26.542Z,15.20
2022-10-01T10:15:57.730Z,15.95
2022-10-01T10:18:31.541Z,17.33
2022-10-01T10:21:02.926Z,17.58
2022-10-01T10:23:31.383Z,21.77
2022-10-01T10:26:03.747Z,17.65
2022-10-01T10:28:44.120Z,18.73
2022-10-01T10:31:17.354Z,14.85
2022-10-01T10:33:53.688Z,21.77
2022-10-01T10:36:28.874Z,19.98
2022-10-01T10:38:57.793Z,19.48
2022-10-01T10:41:27.235Z,12.57
2022-10-01T10:43:59.081Z,17.50
2022-10-01T10:46:30.488Z,16.85
2022-10-01T10:49:05.275Z,18.23
2022-10-01T10:51:53.848Z,19.10
2022-10-01T10:54:25.353Z,17.55
2022-10-01T10:56:55.803Z,10.52
2022-10-01T10:59:24.230Z,16.60
2022-10-01T11:01:52.922Z,13.13
2022-10-01T11:04:32.483Z,21.95
2022-10-01T11:07:02.337Z,19.42
2022-10-01T11:09:43.385Z,14.15
2022-10-01T11:12:22.453Z,16.17
2022-10-01T11:15:05.322Z,14.65
2022-10-01T11:17:57.829Z,15.27
2022-10-01T11:20:39.194Z,14.10
2022-10-01T11:23:36.675Z,18.25
2022-10-01T11:26:19.019Z,21.23
2022-10-01T11:29:00.013Z,16.67
2022-10-01T11:31:38.057Z,16.67
2022-10-01T11:34:24.471Z,18.27
2022-10-01T11:37:01.250Z,15.38
2022-10-01T11:39:33.054Z,12.68
2022-10-01T11:42:06.394Z,13.23
2022-10-01T11:44:37.849Z,18.77
2022-10-01T11:47:11.105Z,14.38
2022-10-01T11:49:49.416Z,15.48
2022-10-01T11:52:27.914Z,16.45
2022-10-01T11:55:19.454Z,14.93
2022-10-01T11:58:09.642Z,23.25
2022-10-01T12:00:39.653Z,13.98
2022-10-01T12:03:15.638Z,24.15
2022-10-01T12:05:44.402Z,14.18
2022-10-01T12:08:22.054Z,20.52
2022-10-01T12:10:58.840Z,17.67
2022-10-01T12:13:32.792Z,16.33
2022-10-01T12:16:07.882Z,21.63
2022-10-01T12:18:48.401Z,13.13
2022-10-01T12:21:23.236Z,14.10
2022-10-01T12:23:58.864Z,15.85
2022-10-01T12:26:36.623Z,14.43
2022-10-01T12:29:14.708Z,13.63
2022-10-01T12:31:49.095Z,20.30
2022-10-01T12:34:26.520Z,19.55
2022-10-01T12:37:07.389Z,24.63
2022-10-01T12:39:58.241Z,21.33
2022-10-01T12:42:38.894Z,23.52
2022-10-01T12:45:19.892Z,17.30
2022-10-01T12:47:56.369Z,20.95
2022-10-01T12:50:35.436Z,13.48
2022-10-01T12:53:25.694Z,15.18
2022-10-01T12:56:04.704Z,13.40
2022-10-01T12:58:56.168Z,12.70
2022-10-01T13:01:37.488Z,16.95
2022-10-01T13:04:25.484Z,16.48
2022-10-01T13:07:07.958Z,18.20
2022-10-01T13:09:48.648Z,15.25
2022-10-01T13:12:30.979Z,10.95
2022-10-01T13:15:00.046Z,14.35
2022-10-01T13:17:35.560Z,12.38
2022-10-01T13:20:10.390Z,14.65
2022-10-01T13:22:45.969Z,13.35
2022-10-01T13:25:29.232Z,11.95
2022-10-01T13:28:03.807Z,13.25
2022-10-01T13:30:44.466Z,12.35
2022-10-01T13:33:24.432Z,20.10
2022-10-01T13:35:57.674Z,16.17
2022-10-01T13:38:32.004Z,18.80
2022-10-01T13:41:02.282Z,13.52
2022-10-01T13:43:36.445Z,16.13
2022-10-01T13:46:10.245Z,13.35
2022-10-01T13:48:46.115Z,14.23
2022-10-01T13:51:15.205Z,23.45
2022-10-01T13:53:50.682Z,17.42
2022-10-01T13:56:30.464Z,16.85
2022-10-01T13:59:00.128Z,15.88
2022-10-01T14:01:39.585Z,14.45
2022-10-01T14:04:17.614Z,18.65
2022-10-01T14:06:49.842Z,25.13
2022-10-01T14:09:22.819Z,18.50
2022-10-01T14:12:10.839Z,15.23
2022-10-01T14:15:00.672Z,22.25
2022-10-01T14:17:32.496Z,20.17
2022-10-01T14:20:02.135Z,16.17
2022-10-01T14:23:00.471Z,15.88
2022-10-01T14:25:40.541Z,15.73
2022-10-01T14:28:32.731Z,17.33
2022-10-01T14:31:08.578Z,14.35
2022-10-01T14:33:59.291Z,14.77
2022-10-01T14:36:34.838Z,16.58
2022-10-01T14:39:14.954Z,23.70
2022-10-01T14:41:43.508Z,19.73
2022-10-01T14:44:26.522Z,16.45
2022-10-01T14:46:57.778Z,18.48
2022-10-01T14:49:28.026Z,21.85
2022-10-01T14:52:02.780Z,18.05
2022-10-01T14:54:32.801Z,18.60
2022-10-01T14:57:02.682Z,20.02
2022-10-01T14:59:36.979Z,16.15
2022-10-01T15:02:19.386Z,17.38
2022-10-01T15:04:48.855Z,19.95
2022-10-01T15:07:17.788Z,18.17
2022-10-01T15:09:47.099Z,16.30
2022-10-01T15:12:17.902Z,22.48
2022-10-01T15:14:47.305Z,23.05
2022-10-01T15:17:22.307Z,20.20
2022-10-01T15:19:53.020Z,15.20
2022-10-01T15:22:25.182Z,16.92
2022-10-01T15:24:57.023Z,20.17
2022-10-01T15:27:26.020Z,22.77
2022-10-01T15:29:58.778Z,25.73
2022-10-01T15:32:29.468Z,29.42
2022-10-01T15:34:59.826Z,28.35
2022-10-01T15:37:32.120Z,26.85
2022-10-01T15:40:02.075Z,24.95
2022-10-01T15:42:32.844Z,25.17
2022-10-01T15:45:25.349Z,24.27
2022-10-01T15:47:58.075Z,27.15
2022-10-01T15:50:28.809Z,23.48
2022-10-01T15:53:03.525Z,24.73
2022-10-01T15:55:35.611Z,23.95
2022-10-01T15:58:08.910Z,21.38
2022-10-01T16:00:44.649Z,28.60
2022-10-01T16:03:24.192Z,27.83
2022-10-01T16:05:55.112Z,21.88
2022-10-01T16:08:32.832Z,23.20
2022-10-01T16:11:17.651Z,30.88
2022-10-01T16:13:46.740Z,29.17
2022-10-01T16:16:21.751Z,21.30
2022-10-01T16:18:54.285Z,27.92
2022-10-01T16:21:23.055Z,30.33
2022-10-01T16:23:53.058Z,19.77
2022-10-01T16:26:36.120Z,28.92
2022-10-01T16:29:20.177Z,31.17
2022-10-01T16:31:48.785Z,22.33
2022-10-01T16:34:20.338Z,21.88
2022-10-01T16:36:50.368Z,23.83
2022-10-01T16:39:18.814Z,23.90
2022-10-01T16:42:01.684Z,22.92
2022-10-01T16:44:39.257Z,23.05
2022-10-01T16:47:07.631Z,26.23
2022-10-01T16:49:37.057Z,30.67
2022-10-01T16:52:06.177Z,26.35
2022-10-01T16:54:35.118Z,30.90
2022-10-01T16:57:03.385Z,38.70
2022-10-01T16:59:33.867Z,33.35
2022-10-01T17:02:02.414Z,33.88
2022-10-01T17:04:34.080Z,29.98
2022-10-01T17:07:04.600Z,34.63
2022-10-01T17:09:33.021Z,32.95
2022-10-01T17:12:01.844Z,26.55
2022-10-01T17:14:30.338Z,33.55
2022-10-01T17:16:58.573Z,31.65
2022-10-01T17:19:26.863Z,24.17
2022-10-01T17:21:55.844Z,30.73
2022-10-01T17:24:25.550Z,29.38
2022-10-01T17:26:55.077Z,26.10
2022-10-01T17:29:23.347Z,30.17
2022-10-01T17:31:53.446Z,27.83
2022-10-01T17:34:22.089Z,37.45
2022-10-01T17:36:50.640Z,29.42
2022-10-01T17:39:19.033Z,30.15
2022-10-01T17:41:48.598Z,36.72
2022-10-01T17:44:16.957Z,31.90
2022-10-01T17:46:45.509Z,34.00
2022-10-01T17:49:14.590Z,31.73
2022-10-01T17:51:43.073Z,28.65
2022-10-01T17:54:11.481Z,27.10
2022-10-01T17:56:41.928Z,27.58
2022-10-01T17:59:11.595Z,38.85
2022-10-01T18:01:41.597Z,28.85
2022-10-01T18:04:12.425Z,32.50
2022-10-01T18:06:41.425Z,27.70
2022-10-01T18:09:09.895Z,36.17
2022-10-01T18:11:38.342Z,34.00
2022-10-01T18:14:07.668Z,29.38
2022-10-01T18:16:38.278Z,34.03
2022-10-01T18:21:57.862Z,27.25
2022-10-01T18:24:26.318Z,29.42
2022-10-01T18:26:55.132Z,31.85
2022-10-01T18:29:25.279Z,36.38
2022-10-01T18:32:00.071Z,29.92
2022-10-01T18:34:33.976Z,31.75
2022-10-01T18:37:06.279Z,33.35
2022-10-01T18:39:39.345Z,26.38
2022-10-01T18:42:17.437Z,24.23
2022-10-01T18:44:45.686Z,26.10
2022-10-01T18:47:24.073Z,31.25
2022-10-01T18:50:19.724Z,36.47
2022-10-01T18:52:59.322Z,24.90
2022-10-01T18:55:45.890Z,32.95
2022-10-01T18:58:29.350Z,28.73
2022-10-01T19:01:04.561Z,31.50
2022-10-01T19:03:55.262Z,35.75
2022-10-01T19:06:56.302Z,27.05
2022-10-01T19:09:34.553Z,27.00
2022-10-01T19:12:17.907Z,28.75
2022-10-01T19:15:00.488Z,30.38
2022-10-01T19:17:44.077Z,24.30
2022-10-01T19:20:24.959Z,26.45
2022-10-01T19:23:17.888Z,22.52
2022-10-01T19:25:51.582Z,24.27
2022-10-01T19:28:35.518Z,27.05
2022-10-01T19:31:12.776Z,30.50
2022-10-01T19:33:45.433Z,24.02
2022-10-01T19:36:25.001Z,22.38
2022-10-01T19:38:56.396Z,30.17
2022-10-01T19:41:32.617Z,22.65
2022-10-01T19:44:04.099Z,21.98
2022-10-01T19:46:37.066Z,30.13
2022-10-01T19:49:15.697Z,23.65
2022-10-01T19:51:49.107Z,32.67
2022-10-01T19:54:19.383Z,26.58
2022-10-01T19:56:52.417Z,28.77
2022-10-01T19:59:22.262Z,24.33
2022-10-01T20:01:55.496Z,26.67
2022-10-01T20:04:38.216Z,24.23
2022-10-01T20:07:13.275Z,21.20
2022-10-01T20:09:45.548Z,25.85
2022-10-01T20:12:24.996Z,22.40
2022-10-01T20:15:09.368Z,23.88
2022-10-01T20:17:52.037Z,35.80
2022-10-01T20:20:27.395Z,29.35
2022-10-01T20:23:11.112Z,27.33
2022-10-01T20:25:46.094Z,24.38
2022-10-01T20:28:21.837Z,23.42
2022-10-01T20:30:58.248Z,22.90
2022-10-01T20:33:33.956Z,27.27
2022-10-01T20:36:07.192Z,23.27
2022-10-01T20:38:42.305Z,22.55
2022-10-01T20:41:15.532Z,28.50
2022-10-01T20:43:49.309Z,29.23
2022-10-01T20:46:25.034Z,28.58
2022-10-01T20:48:59.187Z,25.58
2022-10-01T20:51:35.969Z,29.77
2022-10-01T20:54:11.945Z,34.33
2022-10-01T20:56:44.872Z,24.98
2022-10-01T20:59:19.342Z,24.02
2022-10-01T21:02:00.638Z,28.65
2022-10-01T21:04:33.551Z,31.42
2022-10-01T21:07:10.889Z,34.40
2022-10-01T21:09:45.980Z,33.20
2022-10-01T21:12:20.667Z,39.70
2022-10-01T21:14:53.793Z,29.02
2022-10-01T21:17:41.252Z,37.92
2022-10-01T21:20:33.216Z,29.42
2022-10-01T21:23:13.403Z,23.17
2022-10-01T21:25:53.668Z,26.58
2022-10-01T21:28:43.460Z,28.83
2022-10-01T21:31:25.944Z,23.85
2022-10-01T21:33:57.020Z,28.63
2022-10-01T21:36:32.238Z,23.15
2022-10-01T21:39:06.389Z,27.73
2022-10-01T21:41:52.105Z,25.45
2022-10-01T21:44:47.756Z,28.63
2022-10-01T21:47:24.456Z,32.45
2022-10-01T21:50:04.111Z,28.13
2022-10-01T21:52:44.132Z,38.33
2022-10-01T21:55:35.950Z,31.42
2022-10-01T21:58:26.413Z,29.98
2022-10-01T22:01:08.393Z,32.50
2022-10-01T22:03:46.350Z,31.27
2022-10-01T22:06:20.848Z,30.75
2022-10-01T22:09:03.454Z,29.38
2022-10-01T22:11:35.473Z,41.50
2022-10-01T22:14:14.190Z,36.65
2022-10-01T22:16:48.558Z,37.42
2022-10-01T22:19:20.549Z,39.22
2022-10-01T22:21:54.273Z,41.17
2022-10-01T22:24:27.848Z,38.80
2022-10-01T22:27:00.518Z,35.47
2022-10-01T22:29:32.221Z,39.95
2022-10-01T22:32:04.207Z,42.50
2022-10-01T22:34:37.090Z,45.20
2022-10-01T22:37:09.661Z,43.13
2022-10-01T22:39:43.775Z,39.85
2022-10-01T22:42:15.829Z,44.53
2022-10-01T22:44:48.087Z,38.40
2022-10-01T22:47:49.169Z,46.78
2022-10-01T22:50:32.003Z,42.92
2022-10-01T22:53:13.460Z,40.10
2022-10-01T22:55:48.391Z,38.17
2022-10-01T22:58:30.395Z,36.75
2022-10-01T23:01:11.524Z,33.03
2022-10-01T23:03:51.323Z,29.30
2022-10-01T23:06:33.235Z,31.17
2022-10-01T23:09:08.695Z,38.95
2022-10-01T23:11:45.109Z,29.00
2022-10-01T23:14:30.678Z,33.47
2022-10-01T23:17:07.545Z,34.58
2022-10-01T23:19:48.720Z,37.33
2022-10-01T23:22:28.461Z,30.27
2022-10-01T23:25:14.635Z,29.02
2022-10-01T23:27:54.727Z,26.73
2022-10-01T23:30:23.717Z,30.63
2022-10-01T23:33:15.873Z,34.53
2022-10-01T23:35:51.768Z,31.75
2022-10-01T23:38:33.500Z,30.88
2022-10-01T23:41:08.744Z,33.00
2022-10-01T23:43:42.181Z,27.10
2022-10-01T23:46:15.234Z,24.15
2022-10-01T23:48:50.288Z,29.45
2022-10-01T23:51:22.848Z,29.98
2022-10-01T23:53:57.201Z,24.15
2022-10-01T23:56:46.767Z,27.98
2022-10-01T23:59:22.694Z,26.50
